sensor_id;sensor_type;location;lat;lon;timestamp;temperature;humidity
17146;DHT22;8688;54.444;18.444;2023-03-11T00:02:24;-0.20;99.90
17146;DHT22;8688;54.444;18.444;2023-03-11T00:04:51;-0.20;99.90
17146;DHT22;8688;54.444;18.444;2023-03-11T00:07:20;-0.20;99.90
17146;DHT22;8688;54.444;18.444;2023-03-11T00:09:47;-0.20;99.90
17146;DHT22;8688;54.444;18.444;2023-03-11T00:12:15;-0.20;99.90
17146;DHT22;8688;54.444;18.444;2023-03-11T00:14:42;-0.20;99.90
17146;DHT22;8688;54.444;18.444;2023-03-11T00:17:10;-0.20;99.90
17146;DHT22;8688;54.444;18.444;2023-03-11T00:19:37;-0.20;99.90
17146;DHT22;8688;54.444;18.444;2023-03-11T00:22:05;-0.20;99.90
17146;DHT22;8688;54.444;18.444;2023-03-11T00:24:34;-0.20;99.90
17146;DHT22;8688;54.444;18.444;2023-03-11T00:27:02;-0.20;99.90
17146;DHT22;8688;54.444;18.444;2023-03-11T00:29:29;-0.20;99.90
17146;DHT22;8688;54.444;18.444;2023-03-11T00:31:57;-0.20;99.90
17146;DHT22;8688;54.444;18.444;2023-03-11T00:34:24;-0.20;99.90
17146;DHT22;8688;54.444;18.444;2023-03-11T00:36:52;-0.20;99.90
17146;DHT22;8688;54.444;18.444;2023-03-11T00:39:19;-0.30;99.90
17146;DHT22;8688;54.444;18.444;2023-03-11T00:41:49;-0.20;99.90
17146;DHT22;8688;54.444;18.444;2023-03-11T00:44:17;-0.20;99.90
17146;DHT22;8688;54.444;18.444;2023-03-11T00:46:44;-0.20;99.90
17146;DHT22;8688;54.444;18.444;2023-03-11T00:49:12;-0.20;99.90
17146;DHT22;8688;54.444;18.444;2023-03-11T00:51:39;-0.20;99.90
17146;DHT22;8688;54.444;18.444;2023-03-11T00:54:07;-0.20;99.90
17146;DHT22;8688;54.444;18.444;2023-03-11T00:56:34;-0.20;99.90
17146;DHT22;8688;54.444;18.444;2023-03-11T00:59:05;-0.20;99.90
17146;DHT22;8688;54.444;18.444;2023-03-11T01:01:32;-0.20;99.90
17146;DHT22;8688;54.444;18.444;2023-03-11T01:03:59;-0.30;99.90
17146;DHT22;8688;54.444;18.444;2023-03-11T01:06:27;-0.20;99.90
17146;DHT22;8688;54.444;18.444;2023-03-11T01:08:54;-0.30;99.90
17146;DHT22;8688;54.444;18.444;2023-03-11T01:11:22;-0.30;99.90
17146;DHT22;8688;54.444;18.444;2023-03-11T01:13:49;-0.20;99.90
17146;DHT22;8688;54.444;18.444;2023-03-11T01:16:18;-0.30;99.90
17146;DHT22;8688;54.444;18.444;2023-03-11T01:18:46;-0.30;99.90
17146;DHT22;8688;54.444;18.444;2023-03-11T01:21:13;-0.30;99.90
17146;DHT22;8688;54.444;18.444;2023-03-11T01:23:41;-0.30;99.90
17146;DHT22;8688;54.444;18.444;2023-03-11T01:26:08;-0.30;99.90
17146;DHT22;8688;54.444;18.444;2023-03-11T01:28:36;-0.30;99.90
17146;DHT22;8688;54.444;18.444;2023-03-11T01:31:03;-0.30;99.90
17146;DHT22;8688;54.444;18.444;2023-03-11T01:33:32;-0.30;99.90
17146;DHT22;8688;54.444;18.444;2023-03-11T01:36:00;-0.30;99.90
17146;DHT22;8688;54.444;18.444;2023-03-11T01:38:27;-0.30;99.90
17146;DHT22;8688;54.444;18.444;2023-03-11T01:40:55;-0.30;99.90
17146;DHT22;8688;54.444;18.444;2023-03-11T01:43:46;-0.30;99.90
17146;DHT22;8688;54.444;18.444;2023-03-11T01:46:16;-0.30;99.90
17146;DHT22;8688;54.444;18.444;2023-03-11T01:48:47;-0.40;99.90
17146;DHT22;8688;54.444;18.444;2023-03-11T01:51:18;-0.30;99.90
17146;DHT22;8688;54.444;18.444;2023-03-11T01:53:47;-0.30;99.90
17146;DHT22;8688;54.444;18.444;2023-03-11T01:56:14;-0.30;99.90
17146;DHT22;8688;54.444;18.444;2023-03-11T01:58:43;-0.30;99.90
17146;DHT22;8688;54.444;18.444;2023-03-11T02:01:14;-0.30;99.90
17146;DHT22;8688;54.444;18.444;2023-03-11T02:03:42;-0.30;99.90
17146;DHT22;8688;54.444;18.444;2023-03-11T02:06:13;-0.30;99.90
17146;DHT22;8688;54.444;18.444;2023-03-11T02:08:42;-0.30;99.90
17146;DHT22;8688;54.444;18.444;2023-03-11T02:11:13;-0.30;99.90
17146;DHT22;8688;54.444;18.444;2023-03-11T02:13:42;-0.30;99.90
17146;DHT22;8688;54.444;18.444;2023-03-11T02:16:11;-0.30;99.90
17146;DHT22;8688;54.444;18.444;2023-03-11T02:18:39;-0.30;99.90
17146;DHT22;8688;54.444;18.444;2023-03-11T02:21:17;-0.30;99.90
17146;DHT22;8688;54.444;18.444;2023-03-11T02:23:52;-0.30;99.90
17146;DHT22;8688;54.444;18.444;2023-03-11T02:26:24;-0.30;99.90
17146;DHT22;8688;54.444;18.444;2023-03-11T02:28:57;-0.30;99.90
17146;DHT22;8688;54.444;18.444;2023-03-11T02:31:25;-0.30;99.90
17146;DHT22;8688;54.444;18.444;2023-03-11T02:33:55;-0.30;99.90
17146;DHT22;8688;54.444;18.444;2023-03-11T02:36:36;-0.30;99.90
17146;DHT22;8688;54.444;18.444;2023-03-11T02:39:04;-0.30;99.90
17146;DHT22;8688;54.444;18.444;2023-03-11T02:41:34;-0.30;99.90
17146;DHT22;8688;54.444;18.444;2023-03-11T02:44:06;-0.30;99.90
17146;DHT22;8688;54.444;18.444;2023-03-11T02:46:35;-0.30;99.90
17146;DHT22;8688;54.444;18.444;2023-03-11T02:49:03;-0.40;99.90
17146;DHT22;8688;54.444;18.444;2023-03-11T02:51:31;-0.40;99.90
17146;DHT22;8688;54.444;18.444;2023-03-11T02:54:01;-0.40;99.90
17146;DHT22;8688;54.444;18.444;2023-03-11T02:56:29;-0.40;99.90
17146;DHT22;8688;54.444;18.444;2023-03-11T02:58:57;-0.40;99.90
17146;DHT22;8688;54.444;18.444;2023-03-11T03:01:26;-0.40;99.90
17146;DHT22;8688;54.444;18.444;2023-03-11T03:03:53;-0.40;99.90
17146;DHT22;8688;54.444;18.444;2023-03-11T03:06:21;-0.40;99.90
17146;DHT22;8688;54.444;18.444;2023-03-11T03:08:48;-0.40;99.90
17146;DHT22;8688;54.444;18.444;2023-03-11T03:11:15;-0.40;99.90
17146;DHT22;8688;54.444;18.444;2023-03-11T03:13:43;-0.40;99.90
17146;DHT22;8688;54.444;18.444;2023-03-11T03:16:10;-0.40;99.90
17146;DHT22;8688;54.444;18.444;2023-03-11T03:18:40;-0.40;99.90
17146;DHT22;8688;54.444;18.444;2023-03-11T03:21:07;-0.40;99.90
17146;DHT22;8688;54.444;18.444;2023-03-11T03:23:34;-0.40;99.90
17146;DHT22;8688;54.444;18.444;2023-03-11T03:26:02;-0.40;99.90
17146;DHT22;8688;54.444;18.444;2023-03-11T03:28:30;-0.40;99.90
17146;DHT22;8688;54.444;18.444;2023-03-11T03:31:03;-0.40;99.90
17146;DHT22;8688;54.444;18.444;2023-03-11T03:33:31;-0.40;99.90
17146;DHT22;8688;54.444;18.444;2023-03-11T03:36:00;-0.40;99.90
17146;DHT22;8688;54.444;18.444;2023-03-11T03:38:32;-0.40;99.90
17146;DHT22;8688;54.444;18.444;2023-03-11T03:40:59;-0.40;99.90
17146;DHT22;8688;54.444;18.444;2023-03-11T03:43:26;-0.40;99.90
17146;DHT22;8688;54.444;18.444;2023-03-11T03:45:57;-0.40;99.90
17146;DHT22;8688;54.444;18.444;2023-03-11T03:48:25;-0.40;99.90
17146;DHT22;8688;54.444;18.444;2023-03-11T03:50:53;-0.40;99.90
17146;DHT22;8688;54.444;18.444;2023-03-11T03:53:22;-0.40;99.90
17146;DHT22;8688;54.444;18.444;2023-03-11T03:55:49;-0.40;99.90
17146;DHT22;8688;54.444;18.444;2023-03-11T03:58:19;-0.40;99.90
17146;DHT22;8688;54.444;18.444;2023-03-11T04:00:46;-0.50;99.90
17146;DHT22;8688;54.444;18.444;2023-03-11T04:03:14;-0.50;99.90
17146;DHT22;8688;54.444;18.444;2023-03-11T04:05:41;-0.50;99.90
17146;DHT22;8688;54.444;18.444;2023-03-11T04:08:09;-0.50;99.90
17146;DHT22;8688;54.444;18.444;2023-03-11T04:10:38;-0.50;99.90
17146;DHT22;8688;54.444;18.444;2023-03-11T04:13:06;-0.50;99.90
17146;DHT22;8688;54.444;18.444;2023-03-11T04:15:33;-0.50;99.90
17146;DHT22;8688;54.444;18.444;2023-03-11T04:18:01;-0.50;99.90
17146;DHT22;8688;54.444;18.444;2023-03-11T04:20:28;-0.50;99.90
17146;DHT22;8688;54.444;18.444;2023-03-11T04:22:55;-0.60;99.90
17146;DHT22;8688;54.444;18.444;2023-03-11T04:25:23;-0.50;99.90
17146;DHT22;8688;54.444;18.444;2023-03-11T04:27:52;-0.60;99.90
17146;DHT22;8688;54.444;18.444;2023-03-11T04:30:19;-0.60;99.90
17146;DHT22;8688;54.444;18.444;2023-03-11T04:32:47;-0.60;99.90
17146;DHT22;8688;54.444;18.444;2023-03-11T04:35:14;-0.50;99.90
17146;DHT22;8688;54.444;18.444;2023-03-11T04:37:42;-0.60;99.90
17146;DHT22;8688;54.444;18.444;2023-03-11T04:40:10;-0.50;99.90
17146;DHT22;8688;54.444;18.444;2023-03-11T04:42:38;-0.60;99.90
17146;DHT22;8688;54.444;18.444;2023-03-11T04:45:08;-0.60;99.90
17146;DHT22;8688;54.444;18.444;2023-03-11T04:47:37;-0.60;99.90
17146;DHT22;8688;54.444;18.444;2023-03-11T04:50:04;-0.60;99.90
17146;DHT22;8688;54.444;18.444;2023-03-11T04:52:32;-0.60;99.90
17146;DHT22;8688;54.444;18.444;2023-03-11T04:54:59;-0.60;99.90
17146;DHT22;8688;54.444;18.444;2023-03-11T04:57:27;-0.60;99.90
17146;DHT22;8688;54.444;18.444;2023-03-11T04:59:54;-0.60;99.90
17146;DHT22;8688;54.444;18.444;2023-03-11T05:02:23;-0.60;99.90
17146;DHT22;8688;54.444;18.444;2023-03-11T05:04:50;-0.60;99.90
17146;DHT22;8688;54.444;18.444;2023-03-11T05:07:18;-0.60;99.90
17146;DHT22;8688;54.444;18.444;2023-03-11T05:09:45;-0.60;99.90
17146;DHT22;8688;54.444;18.444;2023-03-11T05:12:13;-0.60;99.90
17146;DHT22;8688;54.444;18.444;2023-03-11T05:14:40;-0.60;99.90
17146;DHT22;8688;54.444;18.444;2023-03-11T05:17:08;-0.60;99.90
17146;DHT22;8688;54.444;18.444;2023-03-11T05:19:38;-0.60;99.90
17146;DHT22;8688;54.444;18.444;2023-03-11T05:22:06;-0.60;99.90
17146;DHT22;8688;54.444;18.444;2023-03-11T05:24:34;-0.50;99.90
17146;DHT22;8688;54.444;18.444;2023-03-11T05:27:02;-0.60;99.90
17146;DHT22;8688;54.444;18.444;2023-03-11T05:29:30;-0.60;99.90
17146;DHT22;8688;54.444;18.444;2023-03-11T05:31:57;-0.60;99.90
17146;DHT22;8688;54.444;18.444;2023-03-11T05:34:25;-0.50;99.90
17146;DHT22;8688;54.444;18.444;2023-03-11T05:36:54;-0.60;99.90
17146;DHT22;8688;54.444;18.444;2023-03-11T05:39:21;-0.60;99.90
17146;DHT22;8688;54.444;18.444;2023-03-11T05:41:48;-0.60;99.90
17146;DHT22;8688;54.444;18.444;2023-03-11T05:44:16;-0.60;99.90
17146;DHT22;8688;54.444;18.444;2023-03-11T05:46:44;-0.60;99.90
17146;DHT22;8688;54.444;18.444;2023-03-11T05:49:11;-0.60;99.90
17146;DHT22;8688;54.444;18.444;2023-03-11T05:51:38;-0.60;99.90
17146;DHT22;8688;54.444;18.444;2023-03-11T05:54:07;-0.60;99.90
17146;DHT22;8688;54.444;18.444;2023-03-11T05:56:40;-0.60;99.90
17146;DHT22;8688;54.444;18.444;2023-03-11T05:59:08;-0.60;99.90
17146;DHT22;8688;54.444;18.444;2023-03-11T06:01:35;-0.60;99.90
17146;DHT22;8688;54.444;18.444;2023-03-11T06:04:03;-0.60;99.90
17146;DHT22;8688;54.444;18.444;2023-03-11T06:06:31;-0.60;99.90
17146;DHT22;8688;54.444;18.444;2023-03-11T06:08:59;-0.60;99.90
17146;DHT22;8688;54.444;18.444;2023-03-11T06:11:28;-0.60;99.90
17146;DHT22;8688;54.444;18.444;2023-03-11T06:13:56;-0.60;99.90
17146;DHT22;8688;54.444;18.444;2023-03-11T06:16:24;-0.60;99.90
17146;DHT22;8688;54.444;18.444;2023-03-11T06:18:52;-0.60;99.90
17146;DHT22;8688;54.444;18.444;2023-03-11T06:21:21;-0.60;99.90
17146;DHT22;8688;54.444;18.444;2023-03-11T06:23:49;-0.60;99.90
17146;DHT22;8688;54.444;18.444;2023-03-11T06:26:17;-0.60;99.90
17146;DHT22;8688;54.444;18.444;2023-03-11T06:28:48;-0.60;99.90
17146;DHT22;8688;54.444;18.444;2023-03-11T06:31:18;-0.60;99.90
17146;DHT22;8688;54.444;18.444;2023-03-11T06:33:47;-0.60;99.90
17146;DHT22;8688;54.444;18.444;2023-03-11T06:36:16;-0.50;99.90
17146;DHT22;8688;54.444;18.444;2023-03-11T06:38:44;-0.50;79.80
17146;DHT22;8688;54.444;18.444;2023-03-11T06:41:13;-0.50;55.50
17146;DHT22;8688;54.444;18.444;2023-03-11T06:43:41;-0.50;1.00
17146;DHT22;8688;54.444;18.444;2023-03-11T06:46:11;-0.50;1.00
17146;DHT22;8688;54.444;18.444;2023-03-11T06:48:39;-0.50;1.00
17146;DHT22;8688;54.444;18.444;2023-03-11T06:51:08;-0.50;1.00
17146;DHT22;8688;54.444;18.444;2023-03-11T06:53:39;-0.50;1.00
17146;DHT22;8688;54.444;18.444;2023-03-11T06:56:11;-0.50;1.00
17146;DHT22;8688;54.444;18.444;2023-03-11T06:58:40;-0.50;1.00
17146;DHT22;8688;54.444;18.444;2023-03-11T07:01:11;-0.50;1.00
17146;DHT22;8688;54.444;18.444;2023-03-11T07:03:39;-0.50;1.00
17146;DHT22;8688;54.444;18.444;2023-03-11T07:06:11;-0.40;1.00
17146;DHT22;8688;54.444;18.444;2023-03-11T07:08:39;-0.40;1.00
17146;DHT22;8688;54.444;18.444;2023-03-11T07:11:09;-0.50;1.00
17146;DHT22;8688;54.444;18.444;2023-03-11T07:13:36;-0.40;1.00
17146;DHT22;8688;54.444;18.444;2023-03-11T07:16:08;-0.40;1.00
17146;DHT22;8688;54.444;18.444;2023-03-11T07:18:42;-0.40;1.00
17146;DHT22;8688;54.444;18.444;2023-03-11T07:21:13;-0.40;1.00
17146;DHT22;8688;54.444;18.444;2023-03-11T07:23:41;-0.40;1.00
17146;DHT22;8688;54.444;18.444;2023-03-11T07:26:09;-0.40;1.00
17146;DHT22;8688;54.444;18.444;2023-03-11T07:28:37;-0.40;1.00
17146;DHT22;8688;54.444;18.444;2023-03-11T07:31:10;-0.50;1.00
17146;DHT22;8688;54.444;18.444;2023-03-11T07:33:44;-0.50;1.00
17146;DHT22;8688;54.444;18.444;2023-03-11T07:36:16;-0.40;1.00
17146;DHT22;8688;54.444;18.444;2023-03-11T07:38:47;-0.40;1.00
17146;DHT22;8688;54.444;18.444;2023-03-11T07:41:16;-0.40;1.00
17146;DHT22;8688;54.444;18.444;2023-03-11T07:43:46;-0.40;1.00
17146;DHT22;8688;54.444;18.444;2023-03-11T07:46:20;-0.30;1.00
17146;DHT22;8688;54.444;18.444;2023-03-11T07:48:51;-0.40;1.00
17146;DHT22;8688;54.444;18.444;2023-03-11T07:51:22;-0.40;1.00
17146;DHT22;8688;54.444;18.444;2023-03-11T07:53:53;-0.40;1.00
17146;DHT22;8688;54.444;18.444;2023-03-11T07:56:23;-0.30;1.00
17146;DHT22;8688;54.444;18.444;2023-03-11T07:58:55;-0.40;1.00
17146;DHT22;8688;54.444;18.444;2023-03-11T08:01:27;-0.40;1.00
17146;DHT22;8688;54.444;18.444;2023-03-11T08:04:07;-0.40;1.00
17146;DHT22;8688;54.444;18.444;2023-03-11T08:06:38;-0.40;1.00
17146;DHT22;8688;54.444;18.444;2023-03-11T08:09:07;-0.40;1.00
17146;DHT22;8688;54.444;18.444;2023-03-11T08:11:35;-0.40;1.00
17146;DHT22;8688;54.444;18.444;2023-03-11T08:14:03;-0.40;1.00
17146;DHT22;8688;54.444;18.444;2023-03-11T08:16:31;-0.40;1.00
17146;DHT22;8688;54.444;18.444;2023-03-11T08:18:59;-0.40;1.00
17146;DHT22;8688;54.444;18.444;2023-03-11T08:21:29;-0.40;1.00
17146;DHT22;8688;54.444;18.444;2023-03-11T08:23:58;-0.40;1.00
17146;DHT22;8688;54.444;18.444;2023-03-11T08:26:26;-0.40;1.00
17146;DHT22;8688;54.444;18.444;2023-03-11T08:28:55;-0.40;1.00
17146;DHT22;8688;54.444;18.444;2023-03-11T08:31:24;-0.40;1.00
17146;DHT22;8688;54.444;18.444;2023-03-11T08:33:56;-0.40;1.00
17146;DHT22;8688;54.444;18.444;2023-03-11T08:36:30;-0.30;1.00
17146;DHT22;8688;54.444;18.444;2023-03-11T08:39:02;-0.30;99.90
17146;DHT22;8688;54.444;18.444;2023-03-11T08:41:31;-0.30;99.90
17146;DHT22;8688;54.444;18.444;2023-03-11T08:44:01;-0.30;1.00
17146;DHT22;8688;54.444;18.444;2023-03-11T08:46:33;-0.30;1.00
17146;DHT22;8688;54.444;18.444;2023-03-11T08:49:05;-0.30;99.90
17146;DHT22;8688;54.444;18.444;2023-03-11T08:51:39;-0.20;1.00
17146;DHT22;8688;54.444;18.444;2023-03-11T08:54:08;-0.20;99.90
17146;DHT22;8688;54.444;18.444;2023-03-11T08:56:38;-0.20;99.90
17146;DHT22;8688;54.444;18.444;2023-03-11T08:59:10;-0.20;99.90
17146;DHT22;8688;54.444;18.444;2023-03-11T09:01:41;-0.10;99.90
17146;DHT22;8688;54.444;18.444;2023-03-11T09:04:13;-0.10;99.90
17146;DHT22;8688;54.444;18.444;2023-03-11T09:06:45;0.00;99.90
17146;DHT22;8688;54.444;18.444;2023-03-11T09:09:17;0.00;99.90
17146;DHT22;8688;54.444;18.444;2023-03-11T09:11:52;0.00;99.90
17146;DHT22;8688;54.444;18.444;2023-03-11T09:14:25;0.10;99.90
17146;DHT22;8688;54.444;18.444;2023-03-11T09:16:57;0.10;99.90
17146;DHT22;8688;54.444;18.444;2023-03-11T09:19:28;0.10;99.90
17146;DHT22;8688;54.444;18.444;2023-03-11T09:22:05;0.10;99.90
17146;DHT22;8688;54.444;18.444;2023-03-11T09:24:36;0.10;99.90
17146;DHT22;8688;54.444;18.444;2023-03-11T09:27:05;0.10;99.90
17146;DHT22;8688;54.444;18.444;2023-03-11T09:29:33;0.10;99.90
17146;DHT22;8688;54.444;18.444;2023-03-11T09:32:01;0.10;99.90
17146;DHT22;8688;54.444;18.444;2023-03-11T09:34:28;0.10;99.90
17146;DHT22;8688;54.444;18.444;2023-03-11T09:36:55;0.10;49.70
17146;DHT22;8688;54.444;18.444;2023-03-11T09:39:24;0.10;95.80
17146;DHT22;8688;54.444;18.444;2023-03-11T09:41:53;0.10;22.90
17146;DHT22;8688;54.444;18.444;2023-03-11T09:44:26;0.10;30.60
17146;DHT22;8688;54.444;18.444;2023-03-11T09:50:09;0.20;49.20
17146;DHT22;8688;54.444;18.444;2023-03-11T09:52:44;0.10;58.60
17146;DHT22;8688;54.444;18.444;2023-03-11T09:55:31;0.20;1.00
17146;DHT22;8688;54.444;18.444;2023-03-11T09:58:02;0.20;99.90
17146;DHT22;8688;54.444;18.444;2023-03-11T10:00:31;0.20;67.70
17146;DHT22;8688;54.444;18.444;2023-03-11T10:03:01;0.20;1.00
17146;DHT22;8688;54.444;18.444;2023-03-11T10:05:29;0.30;1.00
17146;DHT22;8688;54.444;18.444;2023-03-11T10:08:01;0.30;1.00
17146;DHT22;8688;54.444;18.444;2023-03-11T10:10:35;0.30;1.00
17146;DHT22;8688;54.444;18.444;2023-03-11T10:13:10;0.30;1.00
17146;DHT22;8688;54.444;18.444;2023-03-11T10:15:45;0.30;99.90
17146;DHT22;8688;54.444;18.444;2023-03-11T10:18:29;0.40;1.00
17146;DHT22;8688;54.444;18.444;2023-03-11T10:21:07;0.50;1.00
17146;DHT22;8688;54.444;18.444;2023-03-11T10:23:52;0.40;1.00
17146;DHT22;8688;54.444;18.444;2023-03-11T10:26:27;0.40;1.00
17146;DHT22;8688;54.444;18.444;2023-03-11T10:29:01;0.40;99.90
17146;DHT22;8688;54.444;18.444;2023-03-11T10:31:36;0.40;99.90
17146;DHT22;8688;54.444;18.444;2023-03-11T10:34:12;0.50;99.90
17146;DHT22;8688;54.444;18.444;2023-03-11T10:36:50;0.50;1.00
17146;DHT22;8688;54.444;18.444;2023-03-11T10:39:21;0.60;1.00
17146;DHT22;8688;54.444;18.444;2023-03-11T10:41:53;0.70;1.00
17146;DHT22;8688;54.444;18.444;2023-03-11T10:44:26;0.70;99.90
17146;DHT22;8688;54.444;18.444;2023-03-11T10:46:55;0.60;1.00
17146;DHT22;8688;54.444;18.444;2023-03-11T10:49:23;0.60;1.00
17146;DHT22;8688;54.444;18.444;2023-03-11T10:51:51;0.60;1.00
17146;DHT22;8688;54.444;18.444;2023-03-11T10:54:23;0.50;1.00
17146;DHT22;8688;54.444;18.444;2023-03-11T10:56:56;0.60;12.10
17146;DHT22;8688;54.444;18.444;2023-03-11T10:59:28;0.70;1.00
17146;DHT22;8688;54.444;18.444;2023-03-11T11:01:58;0.70;1.00
17146;DHT22;8688;54.444;18.444;2023-03-11T11:04:29;0.50;1.00
17146;DHT22;8688;54.444;18.444;2023-03-11T11:06:56;0.60;1.00
17146;DHT22;8688;54.444;18.444;2023-03-11T11:09:25;0.60;1.00
17146;DHT22;8688;54.444;18.444;2023-03-11T11:12:05;0.50;99.90
17146;DHT22;8688;54.444;18.444;2023-03-11T11:14:45;0.50;99.90
17146;DHT22;8688;54.444;18.444;2023-03-11T11:17:18;0.50;1.00
17146;DHT22;8688;54.444;18.444;2023-03-11T11:19:48;0.50;1.00
17146;DHT22;8688;54.444;18.444;2023-03-11T11:22:18;0.50;1.00
17146;DHT22;8688;54.444;18.444;2023-03-11T11:24:47;0.50;1.00
17146;DHT22;8688;54.444;18.444;2023-03-11T11:27:19;0.60;1.00
17146;DHT22;8688;54.444;18.444;2023-03-11T11:30:00;0.50;99.90
17146;DHT22;8688;54.444;18.444;2023-03-11T11:32:28;0.60;1.00
17146;DHT22;8688;54.444;18.444;2023-03-11T11:34:59;0.60;99.90
17146;DHT22;8688;54.444;18.444;2023-03-11T11:37:29;0.70;99.90
17146;DHT22;8688;54.444;18.444;2023-03-11T11:40:00;0.70;99.90
17146;DHT22;8688;54.444;18.444;2023-03-11T11:42:37;0.60;1.00
17146;DHT22;8688;54.444;18.444;2023-03-11T11:45:12;0.70;1.00
17146;DHT22;8688;54.444;18.444;2023-03-11T11:47:43;0.80;1.00
17146;DHT22;8688;54.444;18.444;2023-03-11T11:50:17;0.80;1.00
17146;DHT22;8688;54.444;18.444;2023-03-11T11:52:48;0.90;99.90
17146;DHT22;8688;54.444;18.444;2023-03-11T11:55:21;0.90;99.90
17146;DHT22;8688;54.444;18.444;2023-03-11T11:57:51;1.00;99.90
17146;DHT22;8688;54.444;18.444;2023-03-11T12:00:20;1.00;99.90
17146;DHT22;8688;54.444;18.444;2023-03-11T12:03:10;0.90;99.90
17146;DHT22;8688;54.444;18.444;2023-03-11T12:05:45;0.70;99.90
17146;DHT22;8688;54.444;18.444;2023-03-11T12:08:21;0.60;99.90
17146;DHT22;8688;54.444;18.444;2023-03-11T12:10:55;0.50;99.90
17146;DHT22;8688;54.444;18.444;2023-03-11T12:13:43;0.50;99.90
17146;DHT22;8688;54.444;18.444;2023-03-11T12:16:22;0.50;99.90
17146;DHT22;8688;54.444;18.444;2023-03-11T12:18:57;0.50;99.90
17146;DHT22;8688;54.444;18.444;2023-03-11T12:21:41;0.50;99.90
17146;DHT22;8688;54.444;18.444;2023-03-11T12:24:29;0.50;99.90
17146;DHT22;8688;54.444;18.444;2023-03-11T12:27:00;0.50;99.90
17146;DHT22;8688;54.444;18.444;2023-03-11T12:29:33;0.60;99.90
17146;DHT22;8688;54.444;18.444;2023-03-11T12:32:02;0.60;99.90
17146;DHT22;8688;54.444;18.444;2023-03-11T12:34:32;0.60;99.90
17146;DHT22;8688;54.444;18.444;2023-03-11T12:37:01;0.70;99.90
17146;DHT22;8688;54.444;18.444;2023-03-11T12:39:30;0.70;99.90
17146;DHT22;8688;54.444;18.444;2023-03-11T12:42:17;0.70;1.00
17146;DHT22;8688;54.444;18.444;2023-03-11T12:44:47;0.70;1.00
17146;DHT22;8688;54.444;18.444;2023-03-11T12:47:23;0.80;1.00
17146;DHT22;8688;54.444;18.444;2023-03-11T12:49:52;0.90;1.00
17146;DHT22;8688;54.444;18.444;2023-03-11T12:52:27;0.90;1.00
17146;DHT22;8688;54.444;18.444;2023-03-11T13:04:39;1.10;1.00
17146;DHT22;8688;54.444;18.444;2023-03-11T13:07:36;1.00;99.90
17146;DHT22;8688;54.444;18.444;2023-03-11T13:10:20;0.90;99.90
17146;DHT22;8688;54.444;18.444;2023-03-11T13:12:59;0.90;99.90
17146;DHT22;8688;54.444;18.444;2023-03-11T13:15:36;1.10;99.90
17146;DHT22;8688;54.444;18.444;2023-03-11T13:18:18;1.20;99.90
17146;DHT22;8688;54.444;18.444;2023-03-11T13:20:52;1.30;99.90
17146;DHT22;8688;54.444;18.444;2023-03-11T13:23:28;1.20;99.90
17146;DHT22;8688;54.444;18.444;2023-03-11T13:26:12;1.10;99.90
17146;DHT22;8688;54.444;18.444;2023-03-11T13:28:59;1.00;99.90
17146;DHT22;8688;54.444;18.444;2023-03-11T13:31:51;0.90;99.90
17146;DHT22;8688;54.444;18.444;2023-03-11T13:34:29;0.90;99.90
17146;DHT22;8688;54.444;18.444;2023-03-11T13:37:16;1.00;99.90
17146;DHT22;8688;54.444;18.444;2023-03-11T13:39:56;1.10;99.90
17146;DHT22;8688;54.444;18.444;2023-03-11T13:42:29;1.10;99.90
17146;DHT22;8688;54.444;18.444;2023-03-11T13:44:58;1.00;99.90
17146;DHT22;8688;54.444;18.444;2023-03-11T13:47:28;1.10;99.90
17146;DHT22;8688;54.444;18.444;2023-03-11T13:50:01;1.30;99.90
17146;DHT22;8688;54.444;18.444;2023-03-11T13:52:34;1.40;99.90
17146;DHT22;8688;54.444;18.444;2023-03-11T13:55:04;1.40;99.90
17146;DHT22;8688;54.444;18.444;2023-03-11T13:57:34;1.40;99.90
17146;DHT22;8688;54.444;18.444;2023-03-11T14:00:13;1.30;99.90
17146;DHT22;8688;54.444;18.444;2023-03-11T14:02:45;1.20;99.90
17146;DHT22;8688;54.444;18.444;2023-03-11T14:05:19;1.30;99.90
17146;DHT22;8688;54.444;18.444;2023-03-11T14:07:50;1.30;99.90
17146;DHT22;8688;54.444;18.444;2023-03-11T14:10:28;1.40;65.50
17146;DHT22;8688;54.444;18.444;2023-03-11T14:13:13;1.50;17.50
17146;DHT22;8688;54.444;18.444;2023-03-11T14:18:34;1.40;1.00
17146;DHT22;8688;54.444;18.444;2023-03-11T14:21:05;1.50;1.00
17146;DHT22;8688;54.444;18.444;2023-03-11T14:23:39;1.50;1.00
17146;DHT22;8688;54.444;18.444;2023-03-11T14:26:08;1.40;1.00
17146;DHT22;8688;54.444;18.444;2023-03-11T14:28:41;1.60;1.00
17146;DHT22;8688;54.444;18.444;2023-03-11T14:31:24;1.60;1.00
17146;DHT22;8688;54.444;18.444;2023-03-11T14:33:56;1.70;1.00
17146;DHT22;8688;54.444;18.444;2023-03-11T14:36:29;1.70;1.00
17146;DHT22;8688;54.444;18.444;2023-03-11T14:38:59;1.60;1.00
17146;DHT22;8688;54.444;18.444;2023-03-11T14:41:29;1.50;1.00
17146;DHT22;8688;54.444;18.444;2023-03-11T14:43:57;1.40;1.00
17146;DHT22;8688;54.444;18.444;2023-03-11T14:46:27;1.30;1.00
17146;DHT22;8688;54.444;18.444;2023-03-11T14:48:57;1.20;1.00
17146;DHT22;8688;54.444;18.444;2023-03-11T14:51:31;1.20;1.00
17146;DHT22;8688;54.444;18.444;2023-03-11T14:54:06;1.10;1.00
17146;DHT22;8688;54.444;18.444;2023-03-11T14:56:38;1.10;1.00
17146;DHT22;8688;54.444;18.444;2023-03-11T14:59:10;1.00;1.00
17146;DHT22;8688;54.444;18.444;2023-03-11T15:01:40;0.90;1.00
17146;DHT22;8688;54.444;18.444;2023-03-11T15:04:11;0.90;1.00
17146;DHT22;8688;54.444;18.444;2023-03-11T15:06:42;0.90;1.00
17146;DHT22;8688;54.444;18.444;2023-03-11T15:09:13;1.10;1.00
17146;DHT22;8688;54.444;18.444;2023-03-11T15:11:46;1.20;1.00
17146;DHT22;8688;54.444;18.444;2023-03-11T15:14:22;1.20;1.00
17146;DHT22;8688;54.444;18.444;2023-03-11T15:16:51;1.20;1.00
17146;DHT22;8688;54.444;18.444;2023-03-11T15:19:30;1.20;1.00
17146;DHT22;8688;54.444;18.444;2023-03-11T15:22:05;1.10;1.00
17146;DHT22;8688;54.444;18.444;2023-03-11T15:24:35;1.10;1.00
17146;DHT22;8688;54.444;18.444;2023-03-11T15:27:07;1.10;1.00
17146;DHT22;8688;54.444;18.444;2023-03-11T15:29:49;1.10;1.00
17146;DHT22;8688;54.444;18.444;2023-03-11T15:32:34;1.20;1.00
17146;DHT22;8688;54.444;18.444;2023-03-11T15:35:13;1.20;1.00
17146;DHT22;8688;54.444;18.444;2023-03-11T15:37:43;1.20;1.00
17146;DHT22;8688;54.444;18.444;2023-03-11T15:40:19;1.20;1.00
17146;DHT22;8688;54.444;18.444;2023-03-11T15:42:48;1.20;1.00
17146;DHT22;8688;54.444;18.444;2023-03-11T15:45:17;1.10;1.00
17146;DHT22;8688;54.444;18.444;2023-03-11T15:47:47;0.90;1.00
17146;DHT22;8688;54.444;18.444;2023-03-11T15:50:22;0.80;1.00
17146;DHT22;8688;54.444;18.444;2023-03-11T15:52:54;0.80;1.00
17146;DHT22;8688;54.444;18.444;2023-03-11T15:55:25;0.90;1.00
17146;DHT22;8688;54.444;18.444;2023-03-11T15:57:59;0.90;1.00
17146;DHT22;8688;54.444;18.444;2023-03-11T16:00:29;0.90;1.00
17146;DHT22;8688;54.444;18.444;2023-03-11T16:02:57;0.90;1.00
17146;DHT22;8688;54.444;18.444;2023-03-11T16:05:27;0.80;1.00
17146;DHT22;8688;54.444;18.444;2023-03-11T16:07:55;0.80;1.00
17146;DHT22;8688;54.444;18.444;2023-03-11T16:10:25;0.70;1.00
17146;DHT22;8688;54.444;18.444;2023-03-11T16:12:53;0.80;1.00
17146;DHT22;8688;54.444;18.444;2023-03-11T16:15:25;0.70;1.00
17146;DHT22;8688;54.444;18.444;2023-03-11T16:17:55;0.70;1.00
17146;DHT22;8688;54.444;18.444;2023-03-11T16:20:24;0.80;1.00
17146;DHT22;8688;54.444;18.444;2023-03-11T16:22:55;0.80;1.00